Zion, Mississippi
Current Conditions -  °F | °C
As of 8:53 AM on Wednesday 26 Nov 2014 (Local Time) from KTUP Reporting Station
Clear Clear  
Wind Chill: 39°   Ceiling: Unl
Heat Index: 39°   Visibility: 10mi
Dew Point: 30°   Wind: 3mph
Humidity: 70%   Direction: 190°S
Pressure: 30.19"   Gusts: NA
Location:  34.1762°N, 88.9612°W
Report Text: KTUP 261453Z 19003KT 10SM CLR 04/M01 A3019 RMK AO2 SLP224 I3000 T00391011 52011
Loading
Personal Weather Stations






























Interactive Weather Map New forecast layout! Learn more

10-Day Weather Forecast

Advertisements
Track Severe Weather on mobile